Time;durP1;ratioP1;P1;durP2;ratioP2;P2;SDS_P1;SDS_P2;PMS_P1;PMS_P2;Temp;Humidity;BMP_temperature;BMP_pressure;BME280_temperature;BME280_humidity;BME280_pressure;Samples;Min_cycle;Max_cycle;Signal;HPM_P1;HPM_P2
2023/04/08 00:00:44;;;;;;;;;;;;;;;;;;5034648;28;19929;-84
2023/04/08 00:03:12;;;;;;;;;;;;;;;;;;5046838;28;19928;-84
2023/04/08 00:05:39;;;;;;;;;;;;;;;;;;5033618;28;19925;-85
2023/04/08 00:08:07;;;;;;;;;;;;;;;;;;5034027;28;19925;-85
2023/04/08 00:10:35;;;;;;;;;;;;;;;;;;5032738;28;19925;-85
2023/04/08 00:13:02;;;;;;;;;;;;;;;;;;5033777;28;19932;-84
2023/04/08 00:15:30;;;;;;;;;;;;;;;;;;5048443;28;20398;-85
2023/04/08 00:17:57;;;;;;;;;;;;;;;;;;5035441;28;20392;-85
2023/04/08 00:20:25;;;;;;;;;;;;;;;;;;5034438;28;20592;-86
2023/04/08 00:22:52;;;;;;;;;;;;;;;;;;5047432;28;19925;-85
2023/04/08 00:25:20;;;;;;;;;;;;;;;;;;5034050;28;19929;-84
2023/04/08 00:27:47;;;;;;;;;;;;;;;;;;5034864;28;19925;-88
2023/04/08 00:30:20;;;;;;;;;;;;;;;;;;5033747;28;20286;-86
2023/04/08 00:32:47;;;;;;;;;;;;;;;;;;5030732;28;20294;-85
2023/04/08 00:35:15;;;;;;;;;;;;;;;;;;5033856;28;19925;-84
2023/04/08 00:37:48;;;;;;;;;;;;;;;;;;5030488;28;19925;-83
2023/04/08 00:40:16;;;;;;;;;;;;;;;;;;5043660;28;19932;-86
2023/04/08 00:42:43;;;;;;;;;;;;;;;;;;5035033;28;19929;-82
2023/04/08 00:45:11;;;;;;;;;;;;;;;;;;5031903;28;19936;-86
2023/04/08 00:47:44;;;;;;;;;;;;;;;;;;5033377;28;19940;-84
2023/04/08 00:50:11;;;;;;;;;;;;;;;;;;5032029;28;19932;-84
2023/04/08 00:52:39;;;;;;;;;;;;;;;;;;5034527;28;19941;-85
2023/04/08 00:55:06;;;;;;;;;;;;;;;;;;5033507;28;19925;-85
2023/04/08 00:57:39;;;;;;;;;;;;;;;;;;5031228;28;19933;-85
2023/04/08 01:00:08;;;;;;;;;;;;;;;;;;5033986;28;19926;-85
2023/04/08 01:02:40;;;;;;;;;;;;;;;;;;5031704;28;19936;-85
2023/04/08 01:05:08;;;;;;;;;;;;;;;;;;5033398;28;19925;-84
2023/04/08 01:07:35;;;;;;;;;;;;;;;;;;5034505;28;19992;-84
2023/04/08 01:10:03;;;;;;;;;;;;;;;;;;5034351;28;19932;-84
2023/04/08 01:12:31;;;;;;;;;;;;;;;;;;5032662;28;19929;-85
2023/04/08 01:14:58;;;;;;;;;;;;;;;;;;5032889;28;19925;-84
2023/04/08 01:17:26;;;;;;;;;;;;;;;;;;5029818;28;19925;-85
2023/04/08 01:19:58;;;;;;;;;;;;;;;;;;5030859;28;19925;-86
2023/04/08 01:22:31;;;;;;;;;;;;;;;;;;5039791;28;19925;-84
2023/04/08 01:24:58;;;;;;;;;;;;;;;;;;5046403;28;19932;-84
2023/04/08 01:27:26;;;;;;;;;;;;;;;;;;5040651;28;20286;-84
2023/04/08 01:29:53;;;;;;;;;;;;;;;;;;5032947;28;19933;-85
2023/04/08 01:32:26;;;;;;;;;;;;;;;;;;5029937;28;19926;-85
2023/04/08 01:34:54;;;;;;;;;;;;;;;;;;5032935;28;19925;-84
2023/04/08 01:37:28;;;;;;;;;;;;;;;;;;5032875;28;19929;-84
2023/04/08 01:39:55;;;;;;;;;;;;;;;;;;5032872;28;20433;-84
2023/04/08 01:42:23;;;;;;;;;;;;;;;;;;5031251;28;20306;-85
2023/04/08 01:44:50;;;;;;;;;;;;;;;;;;5032635;28;19932;-86
2023/04/08 01:47:18;;;;;;;;;;;;;;;;;;5032384;28;19925;-84
2023/04/08 01:49:46;;;;;;;;;;;;;;;;;;5048292;28;20370;-84
2023/04/08 01:52:13;;;;;;;;;;;;;;;;;;5025407;28;20386;-85
2023/04/08 01:54:45;;;;;;;;;;;;;;;;;;5032202;28;19925;-84
2023/04/08 01:57:13;;;;;;;;;;;;;;;;;;5032562;28;19932;-84
2023/04/08 01:59:45;;;;;;;;;;;;;;;;;;5031259;28;19997;-87
2023/04/08 02:02:13;;;;;;;;;;;;;;;;;;5032030;28;19932;-85
2023/04/08 02:04:40;;;;;;;;;;;;;;;;;;5033813;28;19925;-85
2023/04/08 02:07:08;;;;;;;;;;;;;;;;;;5032316;28;19925;-85
2023/04/08 02:09:35;;;;;;;;;;;;;;;;;;5032041;28;19925;-85
2023/04/08 02:12:03;;;;;;;;;;;;;;;;;;5040518;28;19999;-86
2023/04/08 02:14:30;;;;;;;;;;;;;;;;;;5030633;28;19945;-86
2023/04/08 02:16:58;;;;;;;;;;;;;;;;;;5029507;28;19925;-85
2023/04/08 02:19:25;;;;;;;;;;;;;;;;;;5033083;28;20428;-84
2023/04/08 02:21:53;;;;;;;;;;;;;;;;;;5042069;28;19932;-85
2023/04/08 02:24:20;;;;;;;;;;;;;;;;;;5031927;28;19929;-85
2023/04/08 02:26:48;;;;;;;;;;;;;;;;;;5031871;28;19936;-84
2023/04/08 02:29:16;;;;;;;;;;;;;;;;;;5030704;28;19925;-86
2023/04/08 02:31:43;;;;;;;;;;;;;;;;;;5031453;28;20293;-85
2023/04/08 02:34:11;;;;;;;;;;;;;;;;;;5031882;28;19925;-86
2023/04/08 02:36:39;;;;;;;;;;;;;;;;;;5031392;28;19932;-86
2023/04/08 02:39:07;;;;;;;;;;;;;;;;;;5031016;28;19926;-86
2023/04/08 02:41:40;;;;;;;;;;;;;;;;;;5032365;28;19936;-88
2023/04/08 02:44:08;;;;;;;;;;;;;;;;;;5032633;28;19929;-86
2023/04/08 02:46:36;;;;;;;;;;;;;;;;;;5037215;28;19940;-84
2023/04/08 02:49:08;;;;;;;;;;;;;;;;;;5047113;28;20389;-85
2023/04/08 02:51:36;;;;;;;;;;;;;;;;;;5031366;28;19925;-86
2023/04/08 02:54:09;;;;;;;;;;;;;;;;;;5031577;28;19932;-86
2023/04/08 02:56:36;;;;;;;;;;;;;;;;;;5031360;28;19940;-85
2023/04/08 02:59:04;;;;;;;;;;;;;;;;;;5031672;28;19925;-85
2023/04/08 03:01:31;;;;;;;;;;;;;;;;;;5030672;28;19929;-85
2023/04/08 03:03:59;;;;;;;;;;;;;;;;;;5031344;28;19933;-85
2023/04/08 03:06:26;;;;;;;;;;;;;;;;;;5030836;28;19925;-86
2023/04/08 03:08:54;;;;;;;;;;;;;;;;;;5030894;28;19932;-85
2023/04/08 03:11:26;;;;;;;;;;;;;;;;;;5032003;28;19925;-86
2023/04/08 03:13:59;;;;;;;;;;;;;;;;;;5039331;28;20409;-86
2023/04/08 03:16:27;;;;;;;;;;;;;;;;;;5032209;28;20314;-86
2023/04/08 03:18:54;;;;;;;;;;;;;;;;;;5027755;28;20510;-86
2023/04/08 03:21:21;;;;;;;;;;;;;;;;;;5030727;28;19929;-85
2023/04/08 03:23:49;;;;;;;;;;;;;;;;;;5031911;28;19932;-85
2023/04/08 03:26:16;;;;;;;;;;;;;;;;;;5031087;28;19970;-85
2023/04/08 03:28:44;;;;;;;;;;;;;;;;;;5047185;28;19925;-86
2023/04/08 03:31:12;;;;;;;;;;;;;;;;;;5030551;28;19929;-85
2023/04/08 03:33:39;;;;;;;;;;;;;;;;;;5031034;28;19925;-86
2023/04/08 03:36:07;;;;;;;;;;;;;;;;;;5030647;28;19928;-85
2023/04/08 03:38:34;;;;;;;;;;;;;;;;;;5031648;28;19926;-86
2023/04/08 03:41:02;;;;;;;;;;;;;;;;;;5045120;28;19937;-86
2023/04/08 03:43:29;;;;;;;;;;;;;;;;;;5029601;28;19926;-86
2023/04/08 03:45:57;;;;;;;;;;;;;;;;;;5028791;28;19925;-84
2023/04/08 03:48:24;;;;;;;;;;;;;;;;;;5044297;28;19926;-85
2023/04/08 03:50:57;;;;;;;;;;;;;;;;;;5030100;28;19925;-86
2023/04/08 03:53:26;;;;;;;;;;;;;;;;;;5030439;28;19933;-84
2023/04/08 03:56:00;;;;;;;;;;;;;;;;;;5031964;28;19932;-86
2023/04/08 03:58:32;;;;;;;;;;;;;;;;;;5036865;28;19932;-86
2023/04/08 04:01:00;;;;;;;;;;;;;;;;;;5028246;28;19932;-86
2023/04/08 04:03:27;;;;;;;;;;;;;;;;;;5031843;28;20297;-85
2023/04/08 04:05:55;;;;;;;;;;;;;;;;;;5031150;28;19948;-86
2023/04/08 04:08:22;;;;;;;;;;;;;;;;;;5029989;28;19929;-86
2023/04/08 04:10:55;;;;;;;;;;;;;;;;;;5038658;28;19925;-84
2023/04/08 04:13:22;;;;;;;;;;;;;;;;;;5032376;28;19952;-87
2023/04/08 04:15:50;;;;;;;;;;;;;;;;;;5035244;28;19944;-86
2023/04/08 04:18:17;;;;;;;;;;;;;;;;;;5035322;28;19936;-86
2023/04/08 04:20:45;;;;;;;;;;;;;;;;;;5034173;28;19932;-86
2023/04/08 04:23:17;;;;;;;;;;;;;;;;;;5033563;28;19932;-85
2023/04/08 04:25:45;;;;;;;;;;;;;;;;;;5035407;28;19925;-85
2023/04/08 04:28:12;;;;;;;;;;;;;;;;;;5035163;28;19936;-85
2023/04/08 04:30:40;;;;;;;;;;;;;;;;;;5033734;28;20400;-85
2023/04/08 04:33:07;;;;;;;;;;;;;;;;;;5034035;28;20400;-84
2023/04/08 04:35:35;;;;;;;;;;;;;;;;;;5034853;28;20389;-86
2023/04/08 04:38:11;;;;;;;;;;;;;;;;;;5035267;28;20293;-85
2023/04/08 04:40:38;;;;;;;;;;;;;;;;;;5032713;28;19956;-85
2023/04/08 04:43:06;;;;;;;;;;;;;;;;;;5033922;28;20452;-84
2023/04/08 04:45:38;;;;;;;;;;;;;;;;;;5034812;28;19929;-85
2023/04/08 04:48:11;;;;;;;;;;;;;;;;;;5033560;28;19936;-84
2023/04/08 04:50:38;;;;;;;;;;;;;;;;;;5033611;28;19932;-87
2023/04/08 04:53:11;;;;;;;;;;;;;;;;;;5033326;28;19929;-85
2023/04/08 04:55:38;;;;;;;;;;;;;;;;;;5034642;28;19925;-86
2023/04/08 04:58:06;;;;;;;;;;;;;;;;;;5033502;28;20317;-85
2023/04/08 05:00:33;;;;;;;;;;;;;;;;;;5033405;28;19925;-86
2023/04/08 05:03:06;;;;;;;;;;;;;;;;;;5025956;28;19937;-85
2023/04/08 05:05:33;;;;;;;;;;;;;;;;;;5031388;28;19925;-85
2023/04/08 05:08:01;;;;;;;;;;;;;;;;;;5033744;28;19948;-85
2023/04/08 05:10:28;;;;;;;;;;;;;;;;;;5032592;28;19940;-87
2023/04/08 05:12:56;;;;;;;;;;;;;;;;;;5033011;28;19936;-85
2023/04/08 05:15:28;;;;;;;;;;;;;;;;;;5032756;28;19926;-87
2023/04/08 05:18:01;;;;;;;;;;;;;;;;;;5032148;28;19933;-84
2023/04/08 05:20:29;;;;;;;;;;;;;;;;;;5032034;28;19925;-86
2023/04/08 05:22:56;;;;;;;;;;;;;;;;;;5032466;28;20358;-84
2023/04/08 05:25:24;;;;;;;;;;;;;;;;;;5032039;28;20378;-86
2023/04/08 05:27:51;;;;;;;;;;;;;;;;;;5033544;28;20386;-86
2023/04/08 05:30:19;;;;;;;;;;;;;;;;;;5032217;28;20470;-85
2023/04/08 05:32:47;;;;;;;;;;;;;;;;;;5045383;28;19937;-86
2023/04/08 05:35:14;;;;;;;;;;;;;;;;;;5033123;28;19925;-86
2023/04/08 05:37:42;;;;;;;;;;;;;;;;;;5030268;28;20189;-85
2023/04/08 05:40:10;;;;;;;;;;;;;;;;;;5031143;28;19925;-87
2023/04/08 05:42:42;;;;;;;;;;;;;;;;;;5032201;28;19929;-84
2023/04/08 05:45:10;;;;;;;;;;;;;;;;;;5032390;28;19932;-85
2023/04/08 05:47:42;;;;;;;;;;;;;;;;;;5032172;28;19929;-86
2023/04/08 05:50:10;;;;;;;;;;;;;;;;;;5031742;28;19929;-86
2023/04/08 05:52:42;;;;;;;;;;;;;;;;;;5032950;28;19929;-86
2023/04/08 05:55:10;;;;;;;;;;;;;;;;;;5039711;28;19925;-86
2023/04/08 05:57:37;;;;;;;;;;;;;;;;;;5030892;28;19932;-86
2023/04/08 06:00:05;;;;;;;;;;;;;;;;;;5033255;28;19929;-85
2023/04/08 06:02:37;;;;;;;;;;;;;;;;;;5033249;28;19932;-87
2023/04/08 06:05:05;;;;;;;;;;;;;;;;;;5032034;28;19925;-85
2023/04/08 06:07:32;;;;;;;;;;;;;;;;;;5031330;28;19925;-87
2023/04/08 06:10:06;;;;;;;;;;;;;;;;;;5032975;28;19925;-86
2023/04/08 06:12:33;;;;;;;;;;;;;;;;;;5032671;28;20377;-87
2023/04/08 06:15:05;;;;;;;;;;;;;;;;;;5032577;28;19996;-86
2023/04/08 06:17:33;;;;;;;;;;;;;;;;;;5031299;28;20409;-86
2023/04/08 06:20:00;;;;;;;;;;;;;;;;;;5030094;28;19926;-85
2023/04/08 06:22:28;;;;;;;;;;;;;;;;;;5032135;28;19925;-84
2023/04/08 06:25:01;;;;;;;;;;;;;;;;;;5030870;28;19925;-86
2023/04/08 06:27:28;;;;;;;;;;;;;;;;;;5032958;28;19932;-86
2023/04/08 06:29:56;;;;;;;;;;;;;;;;;;5031416;28;19925;-85
2023/04/08 06:32:28;;;;;;;;;;;;;;;;;;5030886;28;19929;-86
2023/04/08 06:34:56;;;;;;;;;;;;;;;;;;5029830;28;20267;-85
2023/04/08 06:37:23;;;;;;;;;;;;;;;;;;5032381;28;20309;-86
2023/04/08 06:39:51;;;;;;;;;;;;;;;;;;5031369;28;20251;-86
2023/04/08 06:42:18;;;;;;;;;;;;;;;;;;5031169;28;20301;-84
2023/04/08 06:44:59;;;;;;;;;;;;;;;;;;5031358;28;19932;-85
2023/04/08 06:47:27;;;;;;;;;;;;;;;;;;5032347;28;20293;-83
2023/04/08 06:49:59;;;;;;;;;;;;;;;;;;5032305;28;19947;-84
2023/04/08 06:52:27;;;;;;;;;;;;;;;;;;5031082;28;19936;-86
2023/04/08 06:54:55;;;;;;;;;;;;;;;;;;5030566;28;19945;-85
2023/04/08 06:57:22;;;;;;;;;;;;;;;;;;5030833;28;20436;-84
2023/04/08 06:59:49;;;;;;;;;;;;;;;;;;5031192;28;20004;-83
2023/04/08 07:02:17;;;;;;;;;;;;;;;;;;5030944;28;19929;-83
2023/04/08 07:04:44;;;;;;;;;;;;;;;;;;5029458;28;19932;-85
2023/04/08 07:07:12;;;;;;;;;;;;;;;;;;5032178;28;19936;-85
2023/04/08 07:09:42;;;;;;;;;;;;;;;;;;5032105;28;19925;-86
2023/04/08 07:12:09;;;;;;;;;;;;;;;;;;5032022;28;20367;-85
2023/04/08 07:14:37;;;;;;;;;;;;;;;;;;5031064;28;19932;-86
2023/04/08 07:17:04;;;;;;;;;;;;;;;;;;5030598;28;19933;-85
2023/04/08 07:19:32;;;;;;;;;;;;;;;;;;5031201;28;19929;-86
2023/04/08 07:21:59;;;;;;;;;;;;;;;;;;5028533;28;20293;-87
2023/04/08 07:24:33;;;;;;;;;;;;;;;;;;5031660;28;20279;-86
2023/04/08 07:27:01;;;;;;;;;;;;;;;;;;5030642;28;20302;-87
2023/04/08 07:29:28;;;;;;;;;;;;;;;;;;5031966;28;19925;-85
2023/04/08 07:31:55;;;;;;;;;;;;;;;;;;5026990;28;19932;-87
2023/04/08 07:34:28;;;;;;;;;;;;;;;;;;5030615;28;19936;-86
2023/04/08 07:37:01;;;;;;;;;;;;;;;;;;5030758;28;19925;-86
2023/04/08 07:39:28;;;;;;;;;;;;;;;;;;5030299;28;20400;-84
2023/04/08 07:42:01;;;;;;;;;;;;;;;;;;5027745;28;19925;-86
2023/04/08 07:44:30;;;;;;;;;;;;;;;;;;5031112;28;19932;-85
2023/04/08 07:46:58;;;;;;;;;;;;;;;;;;5028777;28;19936;-84
2023/04/08 07:49:25;;;;;;;;;;;;;;;;;;5034138;28;19929;-87
2023/04/08 07:51:53;;;;;;;;;;;;;;;;;;5033019;28;19960;-87
2023/04/08 07:54:20;;;;;;;;;;;;;;;;;;5034237;28;19948;-86
2023/04/08 07:56:52;;;;;;;;;;;;;;;;;;5034917;28;19929;-85
2023/04/08 07:59:20;;;;;;;;;;;;;;;;;;5035765;28;19932;-87
2023/04/08 08:01:47;;;;;;;;;;;;;;;;;;5034085;28;19929;-84
2023/04/08 08:04:15;;;;;;;;;;;;;;;;;;5032955;28;19925;-87
2023/04/08 08:06:42;;;;;;;;;;;;;;;;;;5047663;28;19932;-86
2023/04/08 08:09:15;;;;;;;;;;;;;;;;;;5032126;28;20278;-86
2023/04/08 08:11:42;;;;;;;;;;;;;;;;;;5041524;28;19933;-83
2023/04/08 08:14:15;;;;;;;;;;;;;;;;;;5034382;28;19925;-86
2023/04/08 08:16:43;;;;;;;;;;;;;;;;;;5031155;28;20008;-85
2023/04/08 08:19:15;;;;;;;;;;;;;;;;;;5032787;28;19940;-86
2023/04/08 08:21:43;;;;;;;;;;;;;;;;;;5033244;28;19940;-85
2023/04/08 08:24:10;;;;;;;;;;;;;;;;;;5033794;28;19932;-86
2023/04/08 08:26:46;;;;;;;;;;;;;;;;;;5033152;28;19929;-86
2023/04/08 08:29:18;;;;;;;;;;;;;;;;;;5033213;28;19940;-86
2023/04/08 08:31:51;;;;;;;;;;;;;;;;;;5034676;28;20008;-84
2023/04/08 08:34:18;;;;;;;;;;;;;;;;;;5033233;28;19936;-87
2023/04/08 08:36:46;;;;;;;;;;;;;;;;;;5031946;28;19932;-86
2023/04/08 08:39:13;;;;;;;;;;;;;;;;;;5033274;28;19925;-86
2023/04/08 08:41:41;;;;;;;;;;;;;;;;;;5039883;28;20305;-84
2023/04/08 08:44:09;;;;;;;;;;;;;;;;;;5034582;28;20294;-86
2023/04/08 08:46:36;;;;;;;;;;;;;;;;;;5033366;28;19925;-86
2023/04/08 08:49:04;;;;;;;;;;;;;;;;;;5033083;28;19929;-86
2023/04/08 08:51:37;;;;;;;;;;;;;;;;;;5032153;28;19932;-86
2023/04/08 08:54:09;;;;;;;;;;;;;;;;;;5034438;28;19925;-85
2023/04/08 08:56:42;;;;;;;;;;;;;;;;;;5032946;28;19952;-85
2023/04/08 08:59:10;;;;;;;;;;;;;;;;;;5033086;28;19932;-88
2023/04/08 09:01:42;;;;;;;;;;;;;;;;;;5034418;28;19936;-87
2023/04/08 09:04:10;;;;;;;;;;;;;;;;;;5033255;28;20374;-86
2023/04/08 09:06:37;;;;;;;;;;;;;;;;;;5038796;28;20271;-85
2023/04/08 09:09:09;;;;;;;;;;;;;;;;;;5032715;28;19952;-87
2023/04/08 09:11:37;;;;;;;;;;;;;;;;;;5042644;28;19928;-86
2023/04/08 09:14:05;;;;;;;;;;;;;;;;;;5032812;28;19932;-87
2023/04/08 09:16:33;;;;;;;;;;;;;;;;;;5030679;28;19925;-85
2023/04/08 09:19:00;;;;;;;;;;;;;;;;;;5030866;28;19925;-85
2023/04/08 09:21:33;;;;;;;;;;;;;;;;;;5032923;28;19925;-87
2023/04/08 09:24:06;;;;;;;;;;;;;;;;;;5033074;28;20378;-85
2023/04/08 09:26:34;;;;;;;;;;;;;;;;;;5032155;28;20427;-87
2023/04/08 09:29:01;;;;;;;;;;;;;;;;;;5033898;28;19936;-86
2023/04/08 09:31:29;;;;;;;;;;;;;;;;;;5042125;28;20301;-86
2023/04/08 09:34:02;;;;;;;;;;;;;;;;;;5041546;28;19948;-85
2023/04/08 09:36:29;;;;;;;;;;;;;;;;;;5033599;28;19933;-85
2023/04/08 09:38:57;;;;;;;;;;;;;;;;;;5033730;28;19929;-86
2023/04/08 09:41:25;;;;;;;;;;;;;;;;;;5032711;28;19925;-86
2023/04/08 09:43:53;;;;;;;;;;;;;;;;;;5037739;28;20302;-87
2023/04/08 09:46:20;;;;;;;;;;;;;;;;;;5031808;28;19984;-85
2023/04/08 09:48:48;;;;;;;;;;;;;;;;;;5043662;28;19962;-87
2023/04/08 09:51:15;;;;;;;;;;;;;;;;;;5033128;28;19932;-86
2023/04/08 09:53:43;;;;;;;;;;;;;;;;;;5032653;28;20385;-86
2023/04/08 09:56:10;;;;;;;;;;;;;;;;;;5032195;28;19936;-87
2023/04/08 09:58:38;;;;;;;;;;;;;;;;;;5032448;28;19936;-86
2023/04/08 10:01:05;;;;;;;;;;;;;;;;;;5033145;28;19929;-87
2023/04/08 10:03:33;;;;;;;;;;;;;;;;;;5032237;28;19925;-85
2023/04/08 10:06:01;;;;;;;;;;;;;;;;;;5032888;28;20358;-85
2023/04/08 10:08:28;;;;;;;;;;;;;;;;;;5031967;28;19925;-87
2023/04/08 10:11:01;;;;;;;;;;;;;;;;;;5030357;28;19925;-86
2023/04/08 10:13:28;;;;;;;;;;;;;;;;;;5031790;28;19925;-86
2023/04/08 10:15:56;;;;;;;;;;;;;;;;;;5031729;28;19932;-85
2023/04/08 10:18:28;;;;;;;;;;;;;;;;;;5032730;28;19936;-86
2023/04/08 10:20:56;;;;;;;;;;;;;;;;;;5030393;28;19933;-86
2023/04/08 10:23:23;;;;;;;;;;;;;;;;;;5047803;28;19925;-84
2023/04/08 10:25:51;;;;;;;;;;;;;;;;;;5032994;28;19932;-87
2023/04/08 10:28:19;;;;;;;;;;;;;;;;;;5032810;28;19925;-84
2023/04/08 10:30:46;;;;;;;;;;;;;;;;;;5032420;28;19948;-85
2023/04/08 10:33:14;;;;;;;;;;;;;;;;;;5041777;28;19929;-86
2023/04/08 10:35:41;;;;;;;;;;;;;;;;;;5031782;28;19948;-87
2023/04/08 10:38:09;;;;;;;;;;;;;;;;;;5031625;28;19928;-86
2023/04/08 10:40:37;;;;;;;;;;;;;;;;;;5039627;28;19929;-86
2023/04/08 10:43:10;;;;;;;;;;;;;;;;;;5032562;28;20267;-87
2023/04/08 10:45:37;;;;;;;;;;;;;;;;;;5032228;28;19959;-86
2023/04/08 10:48:05;;;;;;;;;;;;;;;;;;5032386;28;19929;-87
2023/04/08 10:50:37;;;;;;;;;;;;;;;;;;5047234;28;19936;-86
2023/04/08 10:53:05;;;;;;;;;;;;;;;;;;5030991;28;19929;-86
2023/04/08 10:55:32;;;;;;;;;;;;;;;;;;5035733;28;19925;-86
2023/04/08 10:58:05;;;;;;;;;;;;;;;;;;5030684;28;19936;-85
2023/04/08 11:00:37;;;;;;;;;;;;;;;;;;5031734;28;19960;-85
2023/04/08 11:03:05;;;;;;;;;;;;;;;;;;5029833;28;19925;-86
2023/04/08 11:05:32;;;;;;;;;;;;;;;;;;5031499;28;19925;-86
2023/04/08 11:08:00;;;;;;;;;;;;;;;;;;5029937;28;19936;-84
2023/04/08 11:10:27;;;;;;;;;;;;;;;;;;5031757;28;20396;-85
2023/04/08 11:12:55;;;;;;;;;;;;;;;;;;5031341;28;19929;-86
2023/04/08 11:15:22;;;;;;;;;;;;;;;;;;5028060;28;19925;-85
2023/04/08 11:17:50;;;;;;;;;;;;;;;;;;5030931;28;19929;-86
2023/04/08 11:20:17;;;;;;;;;;;;;;;;;;5044631;28;20432;-86
2023/04/08 11:22:45;;;;;;;;;;;;;;;;;;5030497;28;19929;-86
2023/04/08 11:25:12;;;;;;;;;;;;;;;;;;5029983;28;19925;-86
2023/04/08 11:27:40;;;;;;;;;;;;;;;;;;5027524;28;20426;-86
2023/04/08 11:30:07;;;;;;;;;;;;;;;;;;5031593;28;20269;-84
2023/04/08 11:32:35;;;;;;;;;;;;;;;;;;5039348;28;19925;-85
2023/04/08 11:35:07;;;;;;;;;;;;;;;;;;5031492;28;19952;-86
2023/04/08 11:37:35;;;;;;;;;;;;;;;;;;5028334;28;19930;-87
2023/04/08 11:40:03;;;;;;;;;;;;;;;;;;5028275;28;19933;-85
2023/04/08 11:42:30;;;;;;;;;;;;;;;;;;5031599;28;19929;-86
2023/04/08 11:44:58;;;;;;;;;;;;;;;;;;5028993;28;19929;-86
2023/04/08 11:47:30;;;;;;;;;;;;;;;;;;5031591;28;19925;-86
2023/04/08 11:49:58;;;;;;;;;;;;;;;;;;5030730;28;19929;-86
2023/04/08 11:52:25;;;;;;;;;;;;;;;;;;5031711;28;19929;-86
2023/04/08 11:54:53;;;;;;;;;;;;;;;;;;5031980;28;19929;-88
2023/04/08 11:57:21;;;;;;;;;;;;;;;;;;5027199;28;19932;-86
2023/04/08 11:59:48;;;;;;;;;;;;;;;;;;5038187;28;19936;-85
2023/04/08 12:02:21;;;;;;;;;;;;;;;;;;5026903;28;20305;-88
2023/04/08 12:04:48;;;;;;;;;;;;;;;;;;5027235;28;19936;-87
2023/04/08 12:07:16;;;;;;;;;;;;;;;;;;5025913;28;19935;-87
2023/04/08 12:09:44;;;;;;;;;;;;;;;;;;5024912;28;20903;-87
2023/04/08 12:12:11;;;;;;;;;;;;;;;;;;5025203;28;19925;-85
2023/04/08 12:14:39;;;;;;;;;;;;;;;;;;5025803;28;20059;-86
2023/04/08 12:17:06;;;;;;;;;;;;;;;;;;5040007;28;19927;-86
2023/04/08 12:19:34;;;;;;;;;;;;;;;;;;5024645;28;19925;-87
2023/04/08 12:22:02;;;;;;;;;;;;;;;;;;5027551;28;19925;-84
2023/04/08 12:24:29;;;;;;;;;;;;;;;;;;4992705;28;19936;-82
2023/04/08 12:26:57;;;;;;;;;;;;;;;;;;5015064;28;19925;-82
2023/04/08 12:29:25;;;;;;;;;;;;;;;;;;5000500;28;19933;-85
2023/04/08 12:31:52;;;;;;;;;;;;;;;;;;4997420;28;19941;-84
2023/04/08 12:34:20;;;;;;;;;;;;;;;;;;4999635;28;19933;-83
2023/04/08 12:36:52;;;;;;;;;;;;;;;;;;5002640;28;19940;-81
2023/04/08 12:39:20;;;;;;;;;;;;;;;;;;5000449;28;19933;-86
2023/04/08 12:41:52;;;;;;;;;;;;;;;;;;5019173;28;19933;-83
2023/04/08 12:44:25;;;;;;;;;;;;;;;;;;5008681;28;19944;-83
2023/04/08 12:46:57;;;;;;;;;;;;;;;;;;5009446;28;19933;-82
2023/04/08 12:49:25;;;;;;;;;;;;;;;;;;5008198;28;20325;-82
2023/04/08 12:51:53;;;;;;;;;;;;;;;;;;5005757;28;19947;-85
2023/04/08 12:54:21;;;;;;;;;;;;;;;;;;5001117;28;20447;-84
2023/04/08 12:56:48;;;;;;;;;;;;;;;;;;4999008;28;19933;-83
2023/04/08 12:59:16;;;;;;;;;;;;;;;;;;5004676;28;19929;-84
2023/04/08 13:01:43;;;;;;;;;;;;;;;;;;5005196;28;19933;-82
2023/04/08 13:04:11;;;;;;;;;;;;;;;;;;5018842;28;19933;-82
2023/04/08 13:06:38;;;;;;;;;;;;;;;;;;5011004;28;19949;-85
2023/04/08 13:09:06;;;;;;;;;;;;;;;;;;5011129;28;19941;-85
2023/04/08 13:11:33;;;;;;;;;;;;;;;;;;5005311;28;19944;-84
2023/04/08 13:14:06;;;;;;;;;;;;;;;;;;5024349;28;19940;-85
2023/04/08 13:16:38;;;;;;;;;;;;;;;;;;5003826;28;20274;-82
2023/04/08 13:19:11;;;;;;;;;;;;;;;;;;5001606;28;19940;-83
2023/04/08 13:21:38;;;;;;;;;;;;;;;;;;5011614;28;19937;-82
2023/04/08 13:24:11;;;;;;;;;;;;;;;;;;4981133;28;20715;-86
2023/04/08 13:26:38;;;;;;;;;;;;;;;;;;5004999;28;19933;-82
2023/04/08 13:29:06;;;;;;;;;;;;;;;;;;5014670;28;19933;-82
2023/04/08 13:31:33;;;;;;;;;;;;;;;;;;4997667;28;19942;-83
2023/04/08 13:34:01;;;;;;;;;;;;;;;;;;5000131;28;19941;-83
2023/04/08 13:36:28;;;;;;;;;;;;;;;;;;5005695;28;19933;-86
2023/04/08 13:38:56;;;;;;;;;;;;;;;;;;4999093;28;19940;-82
2023/04/08 13:41:24;;;;;;;;;;;;;;;;;;5018251;28;19933;-87
2023/04/08 13:43:52;;;;;;;;;;;;;;;;;;5018927;28;19940;-87
2023/04/08 13:46:24;;;;;;;;;;;;;;;;;;5017654;28;19933;-86
2023/04/08 13:48:57;;;;;;;;;;;;;;;;;;4997297;28;19953;-82
2023/04/08 13:51:26;;;;;;;;;;;;;;;;;;5014309;28;20382;-87
2023/04/08 13:53:53;;;;;;;;;;;;;;;;;;4999654;28;19933;-83
2023/04/08 13:56:21;;;;;;;;;;;;;;;;;;4998415;28;19929;-84
2023/04/08 13:58:51;;;;;;;;;;;;;;;;;;4995319;28;22687;-82
2023/04/08 14:01:23;;;;;;;;;;;;;;;;;;4999181;28;19933;-84
2023/04/08 14:03:56;;;;;;;;;;;;;;;;;;5005458;28;19932;-82
2023/04/08 14:06:23;;;;;;;;;;;;;;;;;;5022598;28;20502;-84
2023/04/08 14:08:56;;;;;;;;;;;;;;;;;;5006555;28;19941;-81
2023/04/08 14:11:28;;;;;;;;;;;;;;;;;;5001437;28;20170;-86
2023/04/08 14:14:01;;;;;;;;;;;;;;;;;;5004350;28;19940;-83
2023/04/08 14:16:34;;;;;;;;;;;;;;;;;;5005824;28;20318;-83
2023/04/08 14:19:07;;;;;;;;;;;;;;;;;;5026248;28;21212;-87
2023/04/08 14:21:39;;;;;;;;;;;;;;;;;;5009119;28;20601;-84
2023/04/08 14:24:07;;;;;;;;;;;;;;;;;;4984966;28;19941;-85
2023/04/08 14:26:39;;;;;;;;;;;;;;;;;;5008232;28;19940;-86
2023/04/08 14:29:07;;;;;;;;;;;;;;;;;;5002333;28;19937;-82
2023/04/08 14:31:39;;;;;;;;;;;;;;;;;;5012935;28;19944;-82
2023/04/08 14:34:12;;;;;;;;;;;;;;;;;;5007612;28;19932;-84
2023/04/08 14:36:45;;;;;;;;;;;;;;;;;;5002203;28;19933;-85
2023/04/08 14:39:17;;;;;;;;;;;;;;;;;;5001662;28;19933;-83
2023/04/08 14:41:46;;;;;;;;;;;;;;;;;;5002207;28;19940;-82
2023/04/08 14:44:14;;;;;;;;;;;;;;;;;;5015334;28;19933;-81
2023/04/08 14:46:41;;;;;;;;;;;;;;;;;;4998330;28;20617;-82
2023/04/08 14:49:14;;;;;;;;;;;;;;;;;;5016388;28;20398;-81
2023/04/08 14:51:46;;;;;;;;;;;;;;;;;;4999885;28;20530;-83
2023/04/08 14:54:19;;;;;;;;;;;;;;;;;;4998626;28;21494;-84
2023/04/08 14:56:52;;;;;;;;;;;;;;;;;;5011800;28;19933;-82
2023/04/08 14:59:20;;;;;;;;;;;;;;;;;;5003732;28;20700;-83
2023/04/08 15:01:52;;;;;;;;;;;;;;;;;;4998855;28;20389;-81
2023/04/08 15:04:20;;;;;;;;;;;;;;;;;;5014529;28;19933;-84
2023/04/08 15:06:52;;;;;;;;;;;;;;;;;;5002635;28;19940;-86
2023/04/08 15:09:20;;;;;;;;;;;;;;;;;;5009841;28;20610;-81
2023/04/08 15:11:48;;;;;;;;;;;;;;;;;;5023118;28;19933;-80
2023/04/08 15:14:15;;;;;;;;;;;;;;;;;;4960262;28;19929;-81
2023/04/08 15:16:43;;;;;;;;;;;;;;;;;;4990526;28;19933;-83
2023/04/08 15:19:11;;;;;;;;;;;;;;;;;;4996131;28;19932;-81
2023/04/08 15:21:43;;;;;;;;;;;;;;;;;;5010330;28;19933;-82
2023/04/08 15:24:11;;;;;;;;;;;;;;;;;;4979525;28;19955;-85
2023/04/08 15:26:39;;;;;;;;;;;;;;;;;;4984937;28;19940;-84
2023/04/08 15:29:07;;;;;;;;;;;;;;;;;;5012242;28;20433;-85
2023/04/08 15:31:34;;;;;;;;;;;;;;;;;;5005667;28;21233;-85
2023/04/08 15:34:02;;;;;;;;;;;;;;;;;;4996129;28;19932;-81
2023/04/08 15:36:36;;;;;;;;;;;;;;;;;;4983683;28;19933;-80
2023/04/08 15:39:03;;;;;;;;;;;;;;;;;;5006018;28;19933;-85
2023/04/08 15:41:31;;;;;;;;;;;;;;;;;;5006865;28;19933;-84
2023/04/08 15:43:59;;;;;;;;;;;;;;;;;;4997188;28;19934;-86
2023/04/08 15:46:31;;;;;;;;;;;;;;;;;;5015988;28;20507;-79
2023/04/08 15:48:59;;;;;;;;;;;;;;;;;;4995821;28;20598;-82
2023/04/08 15:51:27;;;;;;;;;;;;;;;;;;4992734;28;19934;-84
2023/04/08 15:53:55;;;;;;;;;;;;;;;;;;5005840;28;19933;-87
2023/04/08 15:56:22;;;;;;;;;;;;;;;;;;4994955;28;19940;-83
2023/04/08 15:58:55;;;;;;;;;;;;;;;;;;4992988;28;19933;-84
2023/04/08 16:01:22;;;;;;;;;;;;;;;;;;5002583;28;20904;-84
2023/04/08 16:03:50;;;;;;;;;;;;;;;;;;4994708;28;19933;-85
2023/04/08 16:06:22;;;;;;;;;;;;;;;;;;5001170;28;19933;-85
2023/04/08 16:08:51;;;;;;;;;;;;;;;;;;5003174;28;20310;-85
2023/04/08 16:11:24;;;;;;;;;;;;;;;;;;4994400;28;20297;-86
2023/04/08 16:13:51;;;;;;;;;;;;;;;;;;4997389;28;19933;-81
2023/04/08 16:16:19;;;;;;;;;;;;;;;;;;5014985;28;20765;-88
2023/04/08 16:18:47;;;;;;;;;;;;;;;;;;4997783;28;19933;-83
2023/04/08 16:21:14;;;;;;;;;;;;;;;;;;4997945;28;19933;-81
2023/04/08 16:23:47;;;;;;;;;;;;;;;;;;4986992;28;20298;-87
2023/04/08 16:26:15;;;;;;;;;;;;;;;;;;4994746;28;19940;-84
2023/04/08 16:28:47;;;;;;;;;;;;;;;;;;4993368;28;19933;-86
2023/04/08 16:31:15;;;;;;;;;;;;;;;;;;4993666;28;20570;-86
2023/04/08 16:33:47;;;;;;;;;;;;;;;;;;4990052;28;19952;-81
2023/04/08 16:36:15;;;;;;;;;;;;;;;;;;5003923;28;20310;-85
2023/04/08 16:38:43;;;;;;;;;;;;;;;;;;5024199;28;19933;-81
2023/04/08 16:41:10;;;;;;;;;;;;;;;;;;5000556;28;19933;-84
2023/04/08 16:43:43;;;;;;;;;;;;;;;;;;4997122;28;20374;-81
2023/04/08 16:46:11;;;;;;;;;;;;;;;;;;4997448;28;19933;-85
2023/04/08 16:48:40;;;;;;;;;;;;;;;;;;5001483;28;19944;-83
2023/04/08 16:51:08;;;;;;;;;;;;;;;;;;5006167;28;20109;-81
2023/04/08 16:53:36;;;;;;;;;;;;;;;;;;5004711;28;19933;-83
2023/04/08 16:56:03;;;;;;;;;;;;;;;;;;5000860;28;19934;-84